createdAt,value
2017-06-26T00:00:54.560Z,64.90
2017-06-26T00:03:22.032Z,64.30
2017-06-26T00:05:49.530Z,64.40
2017-06-26T00:08:17.005Z,65.50
2017-06-26T00:10:44.496Z,64.60
2017-06-26T00:13:11.998Z,64.50
2017-06-26T00:15:39.509Z,64.40
2017-06-26T00:18:07.000Z,64.00
2017-06-26T00:20:35.253Z,63.70
2017-06-26T00:23:02.748Z,63.70
2017-06-26T00:25:30.222Z,63.60
2017-06-26T00:27:57.728Z,63.90
2017-06-26T00:30:25.199Z,63.80
2017-06-26T00:32:53.454Z,64.50
2017-06-26T00:35:20.940Z,64.40
2017-06-26T00:37:49.209Z,65.60
2017-06-26T00:40:17.454Z,66.20
2017-06-26T00:42:44.939Z,66.20
2017-06-26T00:45:12.434Z,66.20
2017-06-26T00:47:39.916Z,65.30
2017-06-26T00:50:07.420Z,65.50
2017-06-26T00:52:34.899Z,65.60
2017-06-26T00:55:02.388Z,65.70
2017-06-26T00:57:29.865Z,66.00
2017-06-26T00:59:57.360Z,65.30
2017-06-26T01:02:25.597Z,65.90
2017-06-26T01:04:53.180Z,65.90
2017-06-26T01:07:20.682Z,65.90
2017-06-26T01:09:48.176Z,66.40
2017-06-26T01:12:15.664Z,66.50
2017-06-26T01:14:43.915Z,67.60
2017-06-26T01:17:11.404Z,67.60
2017-06-26T01:19:39.638Z,68.20
2017-06-26T01:22:07.141Z,68.20
2017-06-26T01:24:35.384Z,68.00
2017-06-26T01:27:02.857Z,68.00
2017-06-26T01:29:30.355Z,67.70
2017-06-26T01:31:57.837Z,66.90
2017-06-26T01:34:25.341Z,66.60
2017-06-26T01:36:53.581Z,65.50
2017-06-26T01:39:21.081Z,66.00
2017-06-26T01:41:49.351Z,65.40
2017-06-26T01:44:17.612Z,65.60
2017-06-26T01:46:45.116Z,65.60
2017-06-26T01:49:12.616Z,65.70
2017-06-26T01:51:40.088Z,65.70
2017-06-26T01:54:07.587Z,65.70
2017-06-26T01:56:35.099Z,66.00
2017-06-26T01:59:02.571Z,66.50
2017-06-26T02:01:30.848Z,67.00
2017-06-26T02:03:58.323Z,67.00
2017-06-26T02:06:26.633Z,68.10
2017-06-26T02:08:54.172Z,68.10
2017-06-26T02:11:21.663Z,68.50
2017-06-26T02:13:49.134Z,69.40
2017-06-26T02:16:16.636Z,69.30
2017-06-26T02:18:44.135Z,69.40
2017-06-26T02:21:11.601Z,70.40
2017-06-26T02:23:39.079Z,69.90
2017-06-26T02:26:06.581Z,70.30
2017-06-26T02:28:34.048Z,69.60
2017-06-26T02:31:01.537Z,69.60
2017-06-26T02:33:29.049Z,69.30
2017-06-26T02:35:56.528Z,68.90
2017-06-26T02:38:24.004Z,69.30
2017-06-26T02:40:51.511Z,69.30
2017-06-26T02:43:18.994Z,68.80
2017-06-26T02:45:46.566Z,68.70
2017-06-26T02:48:14.057Z,68.80
2017-06-26T02:50:41.585Z,68.80
2017-06-26T02:53:09.069Z,68.90
2017-06-26T02:55:36.715Z,69.20
2017-06-26T02:58:04.463Z,69.90
2017-06-26T03:00:32.821Z,71.40
2017-06-26T03:03:00.294Z,70.50
2017-06-26T03:05:30.642Z,70.10
2017-06-26T03:07:58.136Z,70.00
2017-06-26T03:10:26.421Z,71.20
2017-06-26T03:12:53.924Z,71.20
2017-06-26T03:15:21.422Z,70.80
2017-06-26T03:17:49.687Z,71.00
2017-06-26T03:20:17.206Z,71.00
2017-06-26T03:22:44.679Z,71.50
2017-06-26T03:25:12.167Z,71.10
2017-06-26T03:27:40.415Z,72.00
2017-06-26T03:30:07.911Z,71.10
2017-06-26T03:32:36.160Z,71.20
2017-06-26T03:35:03.669Z,71.10
2017-06-26T03:37:31.159Z,71.60
2017-06-26T03:39:58.657Z,71.80
2017-06-26T03:42:26.130Z,72.20
2017-06-26T03:44:54.372Z,72.40
2017-06-26T03:47:21.901Z,72.40
2017-06-26T03:49:49.385Z,73.00
2017-06-26T03:52:17.032Z,73.10
2017-06-26T03:54:44.516Z,72.70
2017-06-26T03:57:12.175Z,72.90
2017-06-26T03:59:39.652Z,72.40
2017-06-26T04:02:07.542Z,72.30
2017-06-26T04:04:35.031Z,71.90
2017-06-26T04:07:02.505Z,71.60
2017-06-26T04:09:30.021Z,71.10
2017-06-26T04:11:58.861Z,72.00
2017-06-26T04:14:26.832Z,70.80
2017-06-26T04:16:54.317Z,70.70
2017-06-26T04:19:21.825Z,70.60
2017-06-26T04:21:49.302Z,70.80
2017-06-26T04:24:16.808Z,70.40
2017-06-26T04:26:44.296Z,70.70
2017-06-26T04:29:11.883Z,70.00
2017-06-26T04:31:39.364Z,70.50
2017-06-26T04:34:06.900Z,69.60
2017-06-26T04:36:34.401Z,70.00
2017-06-26T04:39:01.916Z,69.30
2017-06-26T04:41:29.416Z,68.80
2017-06-26T04:43:56.885Z,68.90
2017-06-26T04:46:25.230Z,69.30
2017-06-26T04:48:52.723Z,69.30
2017-06-26T04:51:20.970Z,69.30
2017-06-26T04:53:48.471Z,69.20
2017-06-26T04:56:16.712Z,69.00
2017-06-26T04:58:44.189Z,69.70
2017-06-26T05:01:11.683Z,69.10
2017-06-26T05:03:39.161Z,68.60
2017-06-26T05:06:06.651Z,68.60
2017-06-26T05:08:34.135Z,67.90
2017-06-26T05:11:02.403Z,67.30
2017-06-26T05:13:30.684Z,67.30
2017-06-26T05:15:58.929Z,67.30
2017-06-26T05:18:26.415Z,67.20
2017-06-26T05:20:54.677Z,66.50
2017-06-26T05:23:22.151Z,66.40
2017-06-26T05:25:50.393Z,66.70
2017-06-26T05:28:17.905Z,66.60
2017-06-26T05:30:45.423Z,66.00
2017-06-26T05:33:12.900Z,66.90
2017-06-26T05:35:41.151Z,66.30
2017-06-26T05:38:08.641Z,66.30
2017-06-26T05:40:36.956Z,64.80
2017-06-26T05:43:04.433Z,64.70
2017-06-26T05:45:31.924Z,64.20
2017-06-26T05:48:00.164Z,62.60
2017-06-26T05:50:27.668Z,63.30
2017-06-26T05:52:55.905Z,63.20
2017-06-26T05:55:23.407Z,64.00
2017-06-26T05:57:51.664Z,62.80
2017-06-26T06:00:19.943Z,63.30
2017-06-26T06:02:48.205Z,62.00
2017-06-26T06:05:15.680Z,62.40
2017-06-26T06:07:43.942Z,62.50
2017-06-26T06:10:11.421Z,62.40
2017-06-26T06:12:39.661Z,61.20
2017-06-26T06:15:07.183Z,61.10
2017-06-26T06:17:34.667Z,61.20
2017-06-26T06:20:02.199Z,60.80
2017-06-26T06:22:29.679Z,60.10
2017-06-26T06:24:57.216Z,59.40
2017-06-26T06:27:24.707Z,58.70
2017-06-26T06:29:52.245Z,59.00
2017-06-26T06:32:19.731Z,58.90
2017-06-26T06:34:47.215Z,58.70
2017-06-26T06:37:15.475Z,58.60
2017-06-26T06:39:42.953Z,58.60
2017-06-26T06:42:11.225Z,57.20
2017-06-26T06:44:39.483Z,58.50
2017-06-26T06:47:06.978Z,57.70
2017-06-26T06:49:35.240Z,56.40
2017-06-26T06:52:03.482Z,56.00
2017-06-26T06:54:31.038Z,56.10
2017-06-26T06:56:58.522Z,54.40
2017-06-26T06:59:26.028Z,55.20
2017-06-26T07:01:53.521Z,54.00
2017-06-26T07:04:21.004Z,52.40
2017-06-26T07:06:49.275Z,49.80
2017-06-26T07:09:16.761Z,49.40
2017-06-26T07:11:45.026Z,46.80
2017-06-26T07:14:13.259Z,45.90
2017-06-26T07:16:40.756Z,45.80
2017-06-26T07:19:09.008Z,45.20
2017-06-26T07:21:36.500Z,45.10
2017-06-26T07:24:04.739Z,44.70
2017-06-26T07:26:32.228Z,44.60
2017-06-26T07:29:00.460Z,42.70
2017-06-26T07:31:27.954Z,42.70
2017-06-26T07:33:56.189Z,41.50
2017-06-26T07:36:23.676Z,40.80
2017-06-26T07:38:51.153Z,41.10
2017-06-26T07:41:19.392Z,38.50
2017-06-26T07:43:46.880Z,38.40
2017-06-26T07:46:14.400Z,38.50
2017-06-26T07:48:41.896Z,40.20
2017-06-26T07:51:09.604Z,43.30
2017-06-26T07:53:37.092Z,39.80
2017-06-26T07:56:04.589Z,38.60
2017-06-26T07:58:32.833Z,36.20
2017-06-26T08:01:00.312Z,36.10
2017-06-26T08:03:28.586Z,35.80
2017-06-26T08:05:56.048Z,35.80
2017-06-26T08:08:24.277Z,34.10
2017-06-26T08:10:51.768Z,34.00
2017-06-26T08:13:19.235Z,33.50
2017-06-26T08:15:47.510Z,33.70
2017-06-26T08:18:14.985Z,33.00
2017-06-26T08:20:43.245Z,33.60
2017-06-26T08:23:10.729Z,33.60
2017-06-26T08:25:38.973Z,34.30
2017-06-26T08:28:06.453Z,34.30
2017-06-26T08:30:34.696Z,33.50
2017-06-26T08:33:02.231Z,33.50
2017-06-26T08:35:29.705Z,32.80
2017-06-26T08:37:57.250Z,32.90
2017-06-26T08:40:24.724Z,33.50
2017-06-26T08:42:52.192Z,33.10
2017-06-26T08:45:19.682Z,31.20
2017-06-26T08:47:47.924Z,33.70
2017-06-26T08:50:15.425Z,33.60
2017-06-26T08:52:43.692Z,29.80
2017-06-26T08:55:11.938Z,30.80
2017-06-26T08:57:39.464Z,30.70
2017-06-26T09:00:06.936Z,30.50
2017-06-26T09:02:34.424Z,30.80
2017-06-26T09:05:01.920Z,29.90
2017-06-26T09:07:29.425Z,29.10
2017-06-26T09:09:56.898Z,28.60
2017-06-26T09:12:24.365Z,28.80
2017-06-26T09:14:51.860Z,28.90
2017-06-26T09:17:19.346Z,29.90
2017-06-26T09:19:46.822Z,29.10
2017-06-26T09:22:14.289Z,28.30
2017-06-26T09:24:41.794Z,28.10
2017-06-26T09:27:09.284Z,27.70
2017-06-26T09:29:36.777Z,27.00
2017-06-26T09:32:04.256Z,26.80
2017-06-26T09:34:31.748Z,26.50
2017-06-26T09:36:59.246Z,28.20
2017-06-26T09:39:26.765Z,27.40
2017-06-26T09:41:54.233Z,26.70
2017-06-26T09:44:21.704Z,26.70
2017-06-26T09:46:49.193Z,26.00
2017-06-26T09:49:17.453Z,24.60
2017-06-26T09:51:44.945Z,24.60
2017-06-26T09:54:12.425Z,24.50
2017-06-26T09:56:39.909Z,24.10
2017-06-26T09:59:07.400Z,25.30
2017-06-26T10:01:35.673Z,25.30
2017-06-26T10:04:03.172Z,25.30
2017-06-26T10:06:30.661Z,25.30
2017-06-26T10:08:58.164Z,24.60
2017-06-26T10:11:26.410Z,25.00
2017-06-26T10:13:53.900Z,24.50
2017-06-26T10:16:21.382Z,24.90
2017-06-26T10:18:48.869Z,24.50
2017-06-26T10:21:16.345Z,25.00
2017-06-26T10:23:43.850Z,24.40
2017-06-26T10:26:11.335Z,24.20
2017-06-26T10:28:38.812Z,24.90
2017-06-26T10:31:06.313Z,24.70
2017-06-26T10:33:33.802Z,24.10
2017-06-26T10:36:01.277Z,24.40
2017-06-26T10:38:28.760Z,25.00
2017-06-26T10:40:57.003Z,24.10
2017-06-26T10:43:24.512Z,23.50
2017-06-26T10:45:52.796Z,24.70
2017-06-26T10:48:20.279Z,24.70
2017-06-26T10:50:47.761Z,25.50
2017-06-26T10:53:15.241Z,25.40
2017-06-26T10:55:42.748Z,25.40
2017-06-26T10:58:10.225Z,25.30
2017-06-26T11:00:37.715Z,25.20
2017-06-26T11:03:05.180Z,24.90
2017-06-26T11:05:33.431Z,26.30
2017-06-26T11:08:00.957Z,26.30
2017-06-26T11:10:28.445Z,25.90
2017-06-26T11:12:55.955Z,26.10
2017-06-26T11:15:23.420Z,28.10
2017-06-26T11:17:50.897Z,29.90
2017-06-26T11:20:18.380Z,29.20
2017-06-26T11:22:45.849Z,30.20
2017-06-26T11:25:13.341Z,29.60
2017-06-26T11:27:40.816Z,30.30
2017-06-26T11:30:08.309Z,31.00
2017-06-26T11:32:35.797Z,32.70
2017-06-26T11:35:03.264Z,33.90
2017-06-26T11:37:31.531Z,33.20
2017-06-26T11:39:59.774Z,34.30
2017-06-26T11:42:27.316Z,34.20
2017-06-26T11:44:54.805Z,33.40
2017-06-26T11:47:22.303Z,31.70
2017-06-26T11:49:49.767Z,34.00
2017-06-26T11:52:17.268Z,33.50
2017-06-26T11:54:44.761Z,33.10
2017-06-26T11:57:13.001Z,34.10
2017-06-26T11:59:40.506Z,33.40
2017-06-26T12:02:08.749Z,33.70
2017-06-26T12:04:36.224Z,33.70
2017-06-26T12:07:04.478Z,33.00
2017-06-26T12:09:31.952Z,33.00
2017-06-26T12:11:59.451Z,31.70
2017-06-26T12:14:26.921Z,32.10
2017-06-26T12:16:54.409Z,32.60
2017-06-26T12:19:21.884Z,32.10
2017-06-26T12:21:49.381Z,32.80
2017-06-26T12:24:16.853Z,31.80
2017-06-26T12:26:44.345Z,32.10
2017-06-26T12:29:11.823Z,32.40
2017-06-26T12:31:39.312Z,32.00
2017-06-26T12:34:06.818Z,31.50
2017-06-26T12:36:34.355Z,31.90
2017-06-26T12:39:01.836Z,32.20
2017-06-26T12:41:29.308Z,31.60
2017-06-26T12:43:57.073Z,31.60
2017-06-26T12:46:24.571Z,33.30
2017-06-26T12:48:52.033Z,31.90
2017-06-26T12:51:19.530Z,31.70
2017-06-26T12:53:47.001Z,30.80
2017-06-26T12:56:14.489Z,31.40
2017-06-26T12:58:42.753Z,31.60
2017-06-26T13:01:10.218Z,31.70
2017-06-26T13:03:38.479Z,33.70
2017-06-26T13:06:05.949Z,33.70
2017-06-26T13:08:34.205Z,32.90
2017-06-26T13:11:01.689Z,32.30
2017-06-26T13:13:29.936Z,33.70
2017-06-26T13:15:57.462Z,33.10
2017-06-26T13:18:24.934Z,32.10
2017-06-26T13:20:52.481Z,32.20
2017-06-26T13:23:19.956Z,31.40
2017-06-26T13:25:47.449Z,32.80
2017-06-26T13:28:14.943Z,31.80
2017-06-26T13:30:42.435Z,30.80
2017-06-26T13:33:09.924Z,32.00
2017-06-26T13:35:37.404Z,30.50
2017-06-26T13:38:05.637Z,30.30
2017-06-26T13:40:33.140Z,30.10
2017-06-26T13:43:00.632Z,31.90
2017-06-26T13:45:28.137Z,31.00
2017-06-26T13:47:55.596Z,31.10
2017-06-26T13:50:23.925Z,32.10
2017-06-26T13:52:51.424Z,31.40
2017-06-26T13:55:18.888Z,30.70
2017-06-26T13:57:47.155Z,30.40
2017-06-26T14:00:14.620Z,30.40
2017-06-26T14:02:42.125Z,31.30
2017-06-26T14:05:09.600Z,29.30
2017-06-26T14:07:37.097Z,31.00
2017-06-26T14:10:05.337Z,29.80
2017-06-26T14:12:32.825Z,29.80
2017-06-26T14:15:00.301Z,30.30
2017-06-26T14:17:28.564Z,31.50
2017-06-26T14:19:56.034Z,31.40
2017-06-26T14:22:24.277Z,30.50
2017-06-26T14:24:51.765Z,30.50
2017-06-26T14:27:20.011Z,31.20
2017-06-26T14:29:47.535Z,31.20
2017-06-26T14:32:15.001Z,30.60
2017-06-26T14:34:42.489Z,31.30
2017-06-26T14:37:10.016Z,31.60
2017-06-26T14:39:37.571Z,32.90
2017-06-26T14:42:05.056Z,32.30
2017-06-26T14:44:32.583Z,32.80
2017-06-26T14:47:00.277Z,32.50
2017-06-26T14:49:27.744Z,32.30
2017-06-26T14:51:55.220Z,32.50
2017-06-26T14:54:23.468Z,32.60
2017-06-26T14:56:50.960Z,31.90
2017-06-26T14:59:19.205Z,33.60
2017-06-26T15:01:46.703Z,33.30
2017-06-26T15:04:14.939Z,34.00
2017-06-26T15:06:42.428Z,34.00
2017-06-26T15:09:10.688Z,34.30
2017-06-26T15:11:38.169Z,33.80
2017-06-26T15:14:06.412Z,33.00
2017-06-26T15:16:33.912Z,33.00
2017-06-26T15:19:01.409Z,34.30
2017-06-26T15:21:28.900Z,35.10
2017-06-26T15:23:56.374Z,35.40
2017-06-26T15:26:24.612Z,35.40
2017-06-26T15:28:52.108Z,35.40
2017-06-26T15:31:19.598Z,35.40
2017-06-26T15:33:47.092Z,35.20
2017-06-26T15:36:14.560Z,36.10
2017-06-26T15:38:42.044Z,36.00
2017-06-26T15:41:10.301Z,35.30
2017-06-26T15:43:37.774Z,35.30
2017-06-26T15:46:06.026Z,36.40
2017-06-26T15:48:33.502Z,36.30
2017-06-26T15:51:01.749Z,36.60
2017-06-26T15:53:29.248Z,36.80
2017-06-26T15:55:57.574Z,36.00
2017-06-26T15:58:25.062Z,36.00
2017-06-26T16:00:52.575Z,36.50
2017-06-26T16:03:20.053Z,36.20
2017-06-26T16:05:47.541Z,36.50
2017-06-26T16:08:15.021Z,36.70
2017-06-26T16:10:43.268Z,36.80
2017-06-26T16:13:10.741Z,36.80
2017-06-26T16:15:38.964Z,36.50
2017-06-26T16:18:06.460Z,36.80
2017-06-26T16:20:33.960Z,36.80
2017-06-26T16:23:01.450Z,36.90
2017-06-26T16:25:28.941Z,37.50
2017-06-26T16:27:56.434Z,37.00
2017-06-26T16:30:23.922Z,35.80
2017-06-26T16:32:51.396Z,35.90
2017-06-26T16:35:18.892Z,36.50
2017-06-26T16:37:47.130Z,37.30
2017-06-26T16:40:14.626Z,37.20
2017-06-26T16:42:42.865Z,37.20
2017-06-26T16:45:10.362Z,37.10
2017-06-26T16:47:38.603Z,37.30
2017-06-26T16:50:06.080Z,37.20
2017-06-26T16:52:34.349Z,37.90
2017-06-26T16:55:01.836Z,37.70
2017-06-26T16:57:29.308Z,37.60
2017-06-26T16:59:56.857Z,37.70
2017-06-26T17:02:24.348Z,37.40
2017-06-26T17:04:51.829Z,37.50
2017-06-26T17:07:19.536Z,38.00
2017-06-26T17:09:47.013Z,38.10
2017-06-26T17:12:14.600Z,38.50
2017-06-26T17:14:42.068Z,38.50
2017-06-26T17:17:09.552Z,38.60
2017-06-26T17:19:37.816Z,38.40
2017-06-26T17:22:05.634Z,38.40
2017-06-26T17:24:35.122Z,39.30
2017-06-26T17:27:02.702Z,40.10
2017-06-26T17:29:30.199Z,40.60
2017-06-26T17:31:57.677Z,39.20
2017-06-26T17:34:25.925Z,40.00
2017-06-26T17:36:53.417Z,39.90
2017-06-26T17:39:21.655Z,39.80
2017-06-26T17:41:49.150Z,39.70
2017-06-26T17:44:17.392Z,40.20
2017-06-26T17:46:44.889Z,40.20
2017-06-26T17:49:13.127Z,40.60
2017-06-26T17:51:40.653Z,40.60
2017-06-26T17:54:08.159Z,40.20
2017-06-26T17:56:35.672Z,44.20
2017-06-26T17:59:03.166Z,42.10
2017-06-26T18:01:30.678Z,42.50
2017-06-26T18:03:58.151Z,43.30
2017-06-26T18:06:25.656Z,42.50
2017-06-26T18:08:53.154Z,42.50
2017-06-26T18:11:20.632Z,44.80
2017-06-26T18:13:48.763Z,43.50
2017-06-26T18:16:18.771Z,45.10
2017-06-26T18:18:47.953Z,45.20
2017-06-26T18:21:17.016Z,44.50
2017-06-26T18:23:46.536Z,44.50
2017-06-26T18:26:17.765Z,44.60
2017-06-26T18:28:46.825Z,45.00
2017-06-26T18:31:15.085Z,45.50
2017-06-26T18:33:44.313Z,45.70
2017-06-26T18:36:12.822Z,45.60
2017-06-26T18:38:40.817Z,45.80
2017-06-26T18:41:09.494Z,45.70
2017-06-26T18:43:38.622Z,46.50
2017-06-26T18:46:08.453Z,48.50
2017-06-26T18:48:36.703Z,48.40
2017-06-26T18:51:05.223Z,46.30
2017-06-26T18:53:33.065Z,47.00
2017-06-26T18:56:01.799Z,48.10
2017-06-26T18:58:29.745Z,48.00
2017-06-26T19:00:57.458Z,47.70
2017-06-26T19:03:25.740Z,48.70
2017-06-26T19:05:53.232Z,48.20
2017-06-26T19:08:20.736Z,48.80
2017-06-26T19:10:48.213Z,49.20
2017-06-26T19:13:15.728Z,48.90
2017-06-26T19:15:43.225Z,48.70
2017-06-26T19:18:10.700Z,49.50
2017-06-26T19:20:38.203Z,51.40
2017-06-26T19:23:05.766Z,51.60
2017-06-26T19:25:34.394Z,51.60
2017-06-26T19:28:03.056Z,51.20
2017-06-26T19:30:33.266Z,51.20
2017-06-26T19:33:00.842Z,51.30
2017-06-26T19:35:31.101Z,52.00
2017-06-26T19:38:02.629Z,51.80
2017-06-26T19:40:32.262Z,51.80
2017-06-26T19:43:01.966Z,52.20
2017-06-26T19:45:29.720Z,51.70
2017-06-26T19:48:00.041Z,51.90
2017-06-26T19:50:30.178Z,52.60
2017-06-26T19:52:59.158Z,52.60
2017-06-26T19:55:28.604Z,52.20
2017-06-26T19:57:56.510Z,51.50
2017-06-26T20:00:24.685Z,53.90
2017-06-26T20:02:52.170Z,53.10
2017-06-26T20:05:19.660Z,52.00
2017-06-26T20:07:47.137Z,53.20
2017-06-26T20:10:14.624Z,53.10
2017-06-26T20:12:42.124Z,52.70
2017-06-26T20:15:10.371Z,52.90
2017-06-26T20:17:38.209Z,52.90
2017-06-26T20:20:05.682Z,53.20
2017-06-26T20:22:33.188Z,53.60
2017-06-26T20:25:00.671Z,53.10
2017-06-26T20:27:28.157Z,53.40
2017-06-26T20:29:57.373Z,54.50
2017-06-26T20:32:26.963Z,56.10
2017-06-26T20:34:55.684Z,54.20
2017-06-26T20:37:23.951Z,53.80
2017-06-26T20:39:52.188Z,53.40
2017-06-26T20:42:21.616Z,53.10
2017-06-26T20:44:49.096Z,52.90
2017-06-26T20:47:17.327Z,52.90
2017-06-26T20:49:44.819Z,52.70
2017-06-26T20:52:12.303Z,52.50
2017-06-26T20:54:40.542Z,52.50
2017-06-26T20:57:08.061Z,52.50
2017-06-26T20:59:35.538Z,52.60
2017-06-26T21:02:03.081Z,52.70
2017-06-26T21:04:30.548Z,52.80
2017-06-26T21:06:58.045Z,53.40
2017-06-26T21:09:25.524Z,52.20
2017-06-26T21:11:53.757Z,53.00
2017-06-26T21:14:21.253Z,53.00
2017-06-26T21:16:48.765Z,51.90
2017-06-26T21:19:16.280Z,52.50
2017-06-26T21:21:44.537Z,52.00
2017-06-26T21:24:12.009Z,52.00
2017-06-26T21:26:40.275Z,52.10
2017-06-26T21:29:08.524Z,52.00
2017-06-26T21:31:36.009Z,51.90
2017-06-26T21:34:04.284Z,51.90
2017-06-26T21:36:31.784Z,51.90
2017-06-26T21:38:59.289Z,53.00
2017-06-26T21:41:26.754Z,53.10
2017-06-26T21:43:54.254Z,53.00
2017-06-26T21:46:21.744Z,56.60
2017-06-26T21:48:49.216Z,56.70
2017-06-26T21:51:16.705Z,58.20
2017-06-26T21:53:44.964Z,61.10
2017-06-26T21:56:12.469Z,61.00
2017-06-26T21:58:39.956Z,68.80
2017-06-26T22:01:07.436Z,69.60
2017-06-26T22:03:34.938Z,69.70
2017-06-26T22:06:02.412Z,73.00
2017-06-26T22:08:29.896Z,75.80
2017-06-26T22:10:57.398Z,74.20
2017-06-26T22:13:24.877Z,75.70
2017-06-26T22:15:52.369Z,76.40
2017-06-26T22:18:19.844Z,78.40
2017-06-26T22:20:48.169Z,81.40
2017-06-26T22:23:15.666Z,81.40
2017-06-26T22:25:43.145Z,85.50
2017-06-26T22:30:48.968Z,92.50
2017-06-26T22:33:16.458Z,92.30
2017-06-26T22:35:43.930Z,93.10
2017-06-26T22:38:12.204Z,94.30
2017-06-26T22:40:40.465Z,96.20
2017-06-26T22:43:07.952Z,96.20
2017-06-26T22:45:36.223Z,96.70
2017-06-26T22:48:04.465Z,96.20
2017-06-26T22:50:32.245Z,96.20
2017-06-26T22:52:59.730Z,96.80
2017-06-26T22:55:27.200Z,96.70
2017-06-26T22:57:54.699Z,96.50
2017-06-26T23:00:22.164Z,97.20
2017-06-26T23:02:49.647Z,97.90
2017-06-26T23:05:17.911Z,98.60
2017-06-26T23:07:45.397Z,98.60
2017-06-26T23:10:12.895Z,98.10
2017-06-26T23:12:40.377Z,98.20
2017-06-26T23:15:07.872Z,98.20
2017-06-26T23:17:35.351Z,98.40
2017-06-26T23:20:02.840Z,98.20
2017-06-26T23:22:30.318Z,98.30
2017-06-26T23:24:57.795Z,98.20
2017-06-26T23:27:26.062Z,98.50
2017-06-26T23:29:53.552Z,98.50
2017-06-26T23:32:21.034Z,98.70
2017-06-26T23:34:48.556Z,98.60
2017-06-26T23:37:16.861Z,98.70
2017-06-26T23:39:44.356Z,98.70
2017-06-26T23:42:11.833Z,98.40
2017-06-26T23:44:40.119Z,98.80
2017-06-26T23:47:08.381Z,98.70
2017-06-26T23:49:35.872Z,98.70
2017-06-26T23:52:03.368Z,98.90
2017-06-26T23:54:30.840Z,99.00
2017-06-26T23:56:58.349Z,98.90
2017-06-26T23:59:25.819Z,99.00
